Time;durP1;ratioP1;P1;durP2;ratioP2;P2;SDS_P1;SDS_P2;PMS_P1;PMS_P2;Temp;Humidity;BMP_temperature;BMP_pressure;BME280_temperature;BME280_humidity;BME280_pressure;Samples;Min_cycle;Max_cycle;Signal;HPM_P1;HPM_P2
2022/03/18 00:00:33;;;;;;;22.33;15.90;;;9.10;99.90;;;;;;5106111;28;20445;-68
2022/03/18 00:03:01;;;;;;;26.83;16.60;;;9.00;99.90;;;;;;5101302;28;20451;-68
2022/03/18 00:05:28;;;;;;;24.20;15.83;;;9.20;99.90;;;;;;5111028;28;20618;-68
2022/03/18 00:07:55;;;;;;;24.03;15.83;;;9.20;99.90;;;;;;5112088;28;20444;-68
2022/03/18 00:10:23;;;;;;;29.03;17.13;;;9.10;99.90;;;;;;5098246;28;20444;-68
2022/03/18 00:12:52;;;;;;;21.50;16.80;;;9.20;99.90;;;;;;5111191;28;20935;-68
2022/03/18 00:15:23;;;;;;;21.90;16.37;;;9.00;99.90;;;;;;5098888;28;20951;-69
2022/03/18 00:17:50;;;;;;;19.90;14.40;;;9.00;99.90;;;;;;5110926;28;20444;-68
2022/03/18 00:20:19;;;;;;;20.67;14.57;;;9.00;99.90;;;;;;5111410;28;20910;-69
2022/03/18 00:22:47;;;;;;;20.70;14.47;;;9.10;99.90;;;;;;5109261;28;20739;-68
2022/03/18 00:25:16;;;;;;;20.87;14.97;;;9.20;99.90;;;;;;5109938;28;20443;-68
2022/03/18 00:27:43;;;;;;;18.33;14.50;;;9.10;99.90;;;;;;5110693;28;20870;-68
2022/03/18 00:30:11;;;;;;;19.13;15.47;;;9.10;99.90;;;;;;5104844;28;20480;-68
2022/03/18 00:32:39;;;;;;;20.10;14.50;;;9.10;99.90;;;;;;5110423;28;20467;-69
2022/03/18 00:35:07;;;;;;;19.40;13.70;;;9.00;99.90;;;;;;5110776;28;20522;-69
2022/03/18 00:37:36;;;;;;;19.17;14.37;;;9.20;99.90;;;;;;5109977;28;20448;-68
2022/03/18 00:40:03;;;;;;;18.03;14.07;;;9.10;99.90;;;;;;5105097;28;20451;-67
2022/03/18 00:42:31;;;;;;;15.90;13.20;;;9.10;99.90;;;;;;5106482;28;20543;-67
2022/03/18 00:44:58;;;;;;;19.77;13.83;;;9.30;99.90;;;;;;5107830;28;20447;-68
2022/03/18 00:52:56;;;;;;;16.00;13.23;;;9.30;99.90;;;;;;5111198;28;20631;-69
2022/03/18 00:55:23;;;;;;;17.30;12.13;;;9.20;99.90;;;;;;5098479;28;20483;-67
2022/03/18 00:57:50;;;;;;;18.60;13.47;;;9.10;99.90;;;;;;5108152;28;20501;-68
2022/03/18 01:00:17;;;;;;;19.33;13.97;;;9.10;99.90;;;;;;5105915;28;20535;-68
2022/03/18 01:02:44;;;;;;;18.53;12.33;;;9.20;99.90;;;;;;5099319;28;20452;-68
2022/03/18 01:05:12;;;;;;;16.30;12.87;;;9.20;99.90;;;;;;5108356;28;20845;-68
2022/03/18 01:07:38;;;;;;;17.27;13.20;;;9.20;99.90;;;;;;5110017;28;20509;-67
2022/03/18 01:10:08;;;;;;;19.87;12.53;;;9.20;99.90;;;;;;5106139;28;20451;-67
2022/03/18 01:12:35;;;;;;;17.60;12.37;;;9.20;99.90;;;;;;5101579;28;20483;-68
2022/03/18 01:15:02;;;;;;;19.30;13.77;;;9.10;99.90;;;;;;5111168;28;20906;-68
2022/03/18 01:17:29;;;;;;;16.43;12.77;;;9.20;99.90;;;;;;5109450;28;20470;-68
2022/03/18 01:19:55;;;;;;;17.40;12.53;;;9.30;99.90;;;;;;5111003;28;20891;-69
2022/03/18 01:22:22;;;;;;;17.53;12.10;;;9.30;99.90;;;;;;5110799;28;20943;-68
2022/03/18 01:24:49;;;;;;;17.30;12.70;;;9.30;99.90;;;;;;5104832;28;21115;-68
2022/03/18 01:27:17;;;;;;;16.93;12.40;;;9.30;99.90;;;;;;5108069;28;20544;-68
2022/03/18 01:29:44;;;;;;;17.83;12.70;;;9.30;99.90;;;;;;5109988;28;20962;-68
2022/03/18 01:32:11;;;;;;;15.27;11.27;;;9.30;99.90;;;;;;5110434;28;20965;-68
2022/03/18 01:34:38;;;;;;;14.33;11.27;;;9.20;99.90;;;;;;5110553;28;20834;-68
2022/03/18 01:37:05;;;;;;;16.17;11.73;;;9.20;99.90;;;;;;5110032;28;20447;-68
2022/03/18 01:39:32;;;;;;;15.80;11.77;;;9.10;99.90;;;;;;5110426;28;20554;-68
2022/03/18 01:41:59;;;;;;;15.10;11.50;;;9.20;99.90;;;;;;5110545;28;20935;-68
2022/03/18 01:44:27;;;;;;;14.30;12.10;;;9.20;99.90;;;;;;5097119;28;20458;-68
2022/03/18 01:46:54;;;;;;;13.10;10.77;;;9.20;99.90;;;;;;5114138;28;20447;-68
2022/03/18 01:49:21;;;;;;;18.70;11.43;;;9.20;99.90;;;;;;5114808;28;20494;-68
2022/03/18 01:51:48;;;;;;;15.73;11.70;;;9.20;99.90;;;;;;5113837;28;20453;-68
2022/03/18 01:57:00;;;;;;;15.70;11.90;;;9.20;99.90;;;;;;5111021;28;20449;-67
2022/03/18 01:59:28;;;;;;;15.13;11.13;;;9.20;99.90;;;;;;5107077;28;20816;-67
2022/03/18 02:01:55;;;;;;;15.47;11.00;;;9.00;99.90;;;;;;5110931;28;20539;-67
2022/03/18 02:04:22;;;;;;;15.30;11.10;;;9.10;99.90;;;;;;5095458;28;20539;-67
2022/03/18 02:06:49;;;;;;;16.40;10.27;;;9.00;99.90;;;;;;5106073;28;20455;-67
2022/03/18 02:09:17;;;;;;;15.27;10.77;;;9.10;99.90;;;;;;5112712;28;20536;-68
2022/03/18 02:11:44;;;;;;;14.67;11.90;;;9.00;99.90;;;;;;5113245;28;20737;-68
2022/03/18 02:14:11;;;;;;;13.33;10.27;;;9.00;99.90;;;;;;5114205;28;20479;-68
2022/03/18 02:16:40;;;;;;;15.50;11.07;;;9.20;99.90;;;;;;5108931;28;20455;-68
2022/03/18 02:19:07;;;;;;;15.53;11.37;;;9.10;99.90;;;;;;5108441;28;20565;-68
2022/03/18 02:21:39;;;;;;;14.97;9.80;;;9.10;99.90;;;;;;5113681;28;20469;-68
2022/03/18 02:24:07;;;;;;;14.87;10.60;;;9.00;99.90;;;;;;5112489;28;20448;-69
2022/03/18 02:26:35;;;;;;;16.73;12.03;;;9.00;99.90;;;;;;5107907;28;20650;-69
2022/03/18 02:29:03;;;;;;;13.03;9.60;;;9.10;99.90;;;;;;5113829;28;20458;-69
2022/03/18 02:31:31;;;;;;;12.23;10.60;;;9.10;99.90;;;;;;5103436;28;20452;-69
2022/03/18 02:33:58;;;;;;;13.87;10.40;;;9.10;99.90;;;;;;5110434;28;20507;-68
2022/03/18 02:36:25;;;;;;;11.93;9.67;;;9.20;99.90;;;;;;5100513;28;20474;-69
2022/03/18 02:38:52;;;;;;;14.67;10.57;;;9.00;99.90;;;;;;5103925;28;20515;-69
2022/03/18 02:41:20;;;;;;;14.50;10.60;;;9.20;99.90;;;;;;5100087;28;20550;-68
2022/03/18 02:43:47;;;;;;;12.80;10.33;;;9.10;99.90;;;;;;5113088;28;20527;-69
2022/03/18 02:46:15;;;;;;;17.90;10.47;;;9.10;99.90;;;;;;5109737;28;20466;-69
2022/03/18 02:48:42;;;;;;;14.30;11.30;;;9.20;99.90;;;;;;5097848;28;20440;-68
2022/03/18 02:51:09;;;;;;;15.27;11.10;;;9.00;99.90;;;;;;5111028;28;20931;-68
2022/03/18 02:53:36;;;;;;;15.40;10.83;;;9.00;99.90;;;;;;5098719;28;20995;-69
2022/03/18 02:56:04;;;;;;;14.43;11.00;;;9.20;99.90;;;;;;5113127;28;20471;-69
2022/03/18 02:58:34;;;;;;;15.53;10.43;;;9.10;99.90;;;;;;5103965;28;20444;-68
2022/03/18 03:01:01;;;;;;;15.67;10.70;;;9.00;99.90;;;;;;5103940;28;20522;-69
2022/03/18 03:03:28;;;;;;;15.20;10.40;;;9.10;99.90;;;;;;5110164;28;20456;-67
2022/03/18 03:08:39;;;;;;;14.67;10.20;;;9.10;99.90;;;;;;5105505;28;20431;-68
2022/03/18 03:11:06;;;;;;;16.87;10.67;;;9.00;99.90;;;;;;5105932;28;20865;-67
2022/03/18 03:13:35;;;;;;;11.33;9.60;;;9.10;99.90;;;;;;5112815;28;20481;-68
2022/03/18 03:16:02;;;;;;;13.07;10.13;;;9.00;99.90;;;;;;5113438;28;20462;-67
2022/03/18 03:18:29;;;;;;;15.00;10.63;;;9.10;99.90;;;;;;5112193;28;20439;-67
2022/03/18 03:20:56;;;;;;;12.83;9.87;;;8.90;99.90;;;;;;5104891;28;20524;-68
2022/03/18 03:23:25;;;;;;;13.07;10.07;;;8.80;99.90;;;;;;5100032;28;20854;-67
2022/03/18 03:25:53;;;;;;;17.60;9.93;;;8.90;99.90;;;;;;5112625;28;20483;-68
2022/03/18 03:28:20;;;;;;;19.30;10.70;;;8.90;99.90;;;;;;5112764;28;20456;-68
2022/03/18 03:30:49;;;;;;;15.50;9.10;;;9.00;99.90;;;;;;5112098;28;20923;-68
2022/03/18 03:33:16;;;;;;;13.50;10.77;;;9.00;99.90;;;;;;5112795;28;20452;-68
2022/03/18 03:35:43;;;;;;;12.07;8.97;;;9.10;99.90;;;;;;5111907;28;20451;-68
2022/03/18 03:38:13;;;;;;;13.47;9.90;;;9.20;99.90;;;;;;5112494;28;20440;-68
2022/03/18 03:40:40;;;;;;;12.53;9.63;;;9.00;99.90;;;;;;5112149;28;20522;-68
2022/03/18 03:43:08;;;;;;;15.23;10.43;;;8.90;99.90;;;;;;5112713;28;20455;-68
2022/03/18 03:45:36;;;;;;;15.40;9.67;;;8.90;99.90;;;;;;5112330;28;20447;-68
2022/03/18 03:48:05;;;;;;;14.83;10.20;;;8.90;99.90;;;;;;5112483;28;20467;-68
2022/03/18 03:50:32;;;;;;;12.63;9.13;;;9.00;99.90;;;;;;5111920;28;20580;-67
2022/03/18 03:52:59;;;;;;;11.40;9.93;;;8.90;99.90;;;;;;5112418;28;20808;-67
2022/03/18 03:55:26;;;;;;;13.03;9.67;;;8.90;99.90;;;;;;5111945;28;20578;-68
2022/03/18 03:57:53;;;;;;;11.80;9.47;;;8.90;99.90;;;;;;5100421;28;20441;-67
2022/03/18 04:00:20;;;;;;;13.90;9.77;;;9.00;99.90;;;;;;5109987;28;20534;-67
2022/03/18 04:02:47;;;;;;;14.77;10.60;;;8.90;99.90;;;;;;5109403;28;20976;-67
2022/03/18 04:05:15;;;;;;;11.10;8.90;;;8.90;99.90;;;;;;5110767;28;20521;-67
2022/03/18 04:07:44;;;;;;;15.23;11.10;;;8.90;99.90;;;;;;5110479;28;20867;-68
2022/03/18 04:10:12;;;;;;;15.73;10.33;;;8.90;99.90;;;;;;5109486;28;20531;-69
2022/03/18 04:12:39;;;;;;;13.97;9.93;;;9.00;99.90;;;;;;5111261;28;20440;-68
2022/03/18 04:15:08;;;;;;;14.27;11.00;;;9.00;99.90;;;;;;5111549;28;20479;-69
2022/03/18 04:17:39;;;;;;;13.20;10.70;;;9.00;99.90;;;;;;5110194;28;20452;-68
2022/03/18 04:20:08;;;;;;;12.53;10.67;;;9.10;99.90;;;;;;5111550;28;20857;-67
2022/03/18 04:22:36;;;;;;;15.50;10.93;;;9.00;99.90;;;;;;5110991;28;20962;-67
2022/03/18 04:25:03;;;;;;;12.50;10.43;;;8.90;99.90;;;;;;5103273;28;20546;-67
2022/03/18 04:27:30;;;;;;;15.00;10.30;;;8.90;99.90;;;;;;5110359;28;20829;-68
2022/03/18 04:29:57;;;;;;;14.90;11.17;;;9.00;99.90;;;;;;5107539;28;20527;-67
2022/03/18 04:32:24;;;;;;;17.53;10.30;;;9.00;99.90;;;;;;5098070;28;20536;-67
2022/03/18 04:34:51;;;;;;;15.10;10.63;;;8.90;99.90;;;;;;5111610;28;20506;-67
2022/03/18 04:37:18;;;;;;;14.00;10.67;;;8.90;99.90;;;;;;5110343;28;20446;-67
2022/03/18 04:39:46;;;;;;;13.53;8.90;;;8.80;99.90;;;;;;5110870;28;20531;-67
2022/03/18 04:42:13;;;;;;;16.00;11.77;;;8.70;99.90;;;;;;5097824;28;20551;-69
2022/03/18 04:44:40;;;;;;;15.03;10.77;;;8.90;99.90;;;;;;5110866;28;20459;-67
2022/03/18 04:47:07;;;;;;;16.00;11.80;;;8.80;99.90;;;;;;5105573;28;20528;-67
2022/03/18 04:49:34;;;;;;;16.57;11.60;;;8.70;99.90;;;;;;5103957;28;20526;-67
2022/03/18 04:52:01;;;;;;;13.00;10.30;;;8.70;99.90;;;;;;5102179;28;20471;-67
2022/03/18 04:54:28;;;;;;;15.60;11.03;;;8.80;99.90;;;;;;5098446;28;20492;-69
2022/03/18 04:59:41;;;;;;;12.80;10.00;;;8.80;99.90;;;;;;5098245;28;20440;-68
2022/03/18 05:02:10;;;;;;;14.43;9.63;;;8.90;99.90;;;;;;5108981;28;20443;-67
2022/03/18 05:04:37;;;;;;;13.20;10.90;;;8.90;99.90;;;;;;5098558;28;20460;-68
2022/03/18 05:07:04;;;;;;;15.40;10.47;;;9.00;99.90;;;;;;5109286;28;20446;-67
2022/03/18 05:09:31;;;;;;;15.33;12.40;;;8.90;26.70;;;;;;5110871;28;20453;-69
2022/03/18 05:12:00;;;;;;;16.63;10.57;;;8.90;93.80;;;;;;5110264;28;20478;-67
2022/03/18 05:14:26;;;;;;;25.47;13.13;;;8.90;99.90;;;;;;5110066;28;20899;-67
2022/03/18 05:16:53;;;;;;;19.70;11.73;;;8.80;99.90;;;;;;5110974;28;20448;-67
2022/03/18 05:19:20;;;;;;;18.87;11.93;;;8.80;54.90;;;;;;5100471;28;20444;-67
2022/03/18 05:21:47;;;;;;;12.67;9.80;;;9.00;85.00;;;;;;5102991;28;20436;-70
2022/03/18 05:24:14;;;;;;;16.80;12.23;;;8.90;74.30;;;;;;5107477;28;20494;-65
2022/03/18 05:26:41;;;;;;;17.13;11.80;;;8.80;99.90;;;;;;5105695;28;20502;-67
2022/03/18 05:29:09;;;;;;;18.67;12.30;;;8.70;99.90;;;;;;5090749;28;20952;-68
2022/03/18 05:31:36;;;;;;;20.47;11.63;;;8.70;99.90;;;;;;5110461;28;20447;-68
2022/03/18 05:34:03;;;;;;;14.87;10.37;;;8.90;99.90;;;;;;5110748;28;21349;-68
2022/03/18 05:36:30;;;;;;;15.83;9.60;;;8.80;83.00;;;;;;5109617;28;20487;-67
2022/03/18 05:38:57;;;;;;;16.73;10.97;;;8.70;99.90;;;;;;5106620;28;20491;-67
2022/03/18 05:41:24;;;;;;;15.90;10.77;;;8.80;52.10;;;;;;5097868;28;20492;-67
2022/03/18 05:43:51;;;;;;;14.03;8.87;;;8.70;99.90;;;;;;5110335;28;20513;-68
2022/03/18 05:46:19;;;;;;;17.20;11.37;;;8.60;99.90;;;;;;5109748;28;20777;-71
2022/03/18 05:48:46;;;;;;;18.03;11.30;;;8.60;99.90;;;;;;5110173;28;20436;-69
2022/03/18 05:51:13;;;;;;;15.17;10.47;;;8.70;99.90;;;;;;5110855;28;20439;-69
2022/03/18 05:53:40;;;;;;;16.37;11.90;;;8.70;99.90;;;;;;5109528;28;20448;-69
2022/03/18 05:58:52;;;;;;;15.13;10.63;;;8.60;99.90;;;;;;5095777;28;20426;-68
2022/03/18 06:01:20;;;;;;;17.87;11.93;;;8.80;99.90;;;;;;5110770;28;20444;-67
2022/03/18 06:03:49;;;;;;;18.10;13.37;;;8.80;10.40;;;;;;5107207;28;20519;-68
2022/03/18 06:06:16;;;;;;;14.60;11.00;;;8.80;7.90;;;;;;5108672;28;20451;-69
2022/03/18 06:14:12;;;;;;;18.97;13.70;;;8.80;7.90;;;;;;5103199;28;20860;-69
2022/03/18 06:16:40;;;;;;;18.57;11.97;;;8.90;1.00;;;;;;5094638;28;20523;-70
2022/03/18 06:19:07;;;;;;;15.90;11.63;;;8.90;1.00;;;;;;5110468;28;20509;-70
2022/03/18 06:21:34;;;;;;;20.93;14.27;;;8.80;3.10;;;;;;5109450;28;20443;-69
2022/03/18 06:24:01;;;;;;;18.33;13.50;;;8.80;1.00;;;;;;5110124;28;20947;-69
2022/03/18 06:26:30;;;;;;;16.70;12.70;;;8.90;1.00;;;;;;5110192;28;20469;-69
2022/03/18 06:28:57;;;;;;;20.17;13.93;;;8.90;1.00;;;;;;5110617;28;20483;-68
2022/03/18 06:31:24;;;;;;;20.93;14.77;;;8.80;1.00;;;;;;5110930;28;20516;-69
2022/03/18 06:33:53;;;;;;;18.73;14.50;;;9.00;1.00;;;;;;5113803;28;20496;-70
2022/03/18 06:36:20;;;;;;;18.40;12.40;;;8.80;1.00;;;;;;5114360;28;20531;-69
2022/03/18 06:38:47;;;;;;;21.67;14.10;;;8.70;1.00;;;;;;5113101;28;20494;-69
2022/03/18 06:41:15;;;;;;;21.43;13.87;;;8.70;21.70;;;;;;5113980;28;20526;-70
2022/03/18 06:43:42;;;;;;;22.77;13.90;;;8.80;1.00;;;;;;5113141;28;20558;-69
2022/03/18 06:46:09;;;;;;;19.90;13.60;;;8.80;1.00;;;;;;5100500;28;20448;-69
2022/03/18 06:48:36;;;;;;;18.67;12.47;;;8.80;1.00;;;;;;5113216;28;20523;-69
2022/03/18 06:51:04;;;;;;;20.77;13.40;;;8.90;1.00;;;;;;5113968;28;20455;-69
2022/03/18 06:53:31;;;;;;;19.80;13.10;;;9.00;1.00;;;;;;5112535;28;20451;-69
2022/03/18 06:55:58;;;;;;;19.70;13.77;;;9.10;1.00;;;;;;5113911;28;20491;-69
2022/03/18 06:58:27;;;;;;;21.37;14.47;;;9.00;1.00;;;;;;5113833;28;20506;-69
2022/03/18 07:00:54;;;;;;;18.20;13.67;;;9.00;1.00;;;;;;5114032;28;20535;-69
2022/03/18 07:03:21;;;;;;;24.13;14.50;;;9.20;1.00;;;;;;5112980;28;20449;-70
2022/03/18 07:05:48;;;;;;;23.30;14.83;;;9.10;1.00;;;;;;5112646;28;20570;-70
2022/03/18 07:08:16;;;;;;;24.30;15.23;;;9.00;1.00;;;;;;5113302;28;20537;-69
2022/03/18 07:10:43;;;;;;;26.60;15.50;;;8.90;1.00;;;;;;5112802;28;20534;-70
2022/03/18 07:13:10;;;;;;;24.30;15.37;;;9.00;1.00;;;;;;5113652;28;20446;-69
2022/03/18 07:15:37;;;;;;;23.57;15.63;;;9.10;1.00;;;;;;5112165;28;20479;-69
2022/03/18 07:18:04;;;;;;;27.23;16.80;;;9.10;1.00;;;;;;5113191;28;20482;-69
2022/03/18 07:20:32;;;;;;;23.93;16.03;;;9.10;1.00;;;;;;5112743;28;20626;-69
2022/03/18 07:23:01;;;;;;;22.37;14.30;;;9.10;1.00;;;;;;5113266;28;20810;-69
2022/03/18 07:25:29;;;;;;;25.13;17.43;;;9.20;1.00;;;;;;5112608;28;20512;-71
2022/03/18 07:27:57;;;;;;;26.90;16.90;;;9.20;99.90;;;;;;5112864;28;20923;-69
2022/03/18 07:30:24;;;;;;;27.40;15.83;;;9.20;1.00;;;;;;5112960;28;20443;-69
2022/03/18 07:32:51;;;;;;;23.93;15.67;;;9.10;1.00;;;;;;5112295;28;20542;-70
2022/03/18 07:35:18;;;;;;;27.20;18.13;;;9.20;1.00;;;;;;5112756;28;20479;-70
2022/03/18 07:37:47;;;;;;;26.93;16.80;;;9.20;1.00;;;;;;5112236;28;20554;-70
2022/03/18 07:40:16;;;;;;;27.90;19.33;;;9.40;1.00;;;;;;5112680;28;20539;-70
2022/03/18 07:42:46;;;;;;;31.13;17.50;;;9.60;99.90;;;;;;5111536;28;20484;-69
2022/03/18 07:45:17;;;;;;;25.53;17.30;;;9.50;99.90;;;;;;5112032;28;20456;-69
2022/03/18 07:47:44;;;;;;;30.73;18.57;;;9.40;99.90;;;;;;5098619;28;20440;-69
2022/03/18 07:50:12;;;;;;;34.73;19.80;;;9.50;99.90;;;;;;5112389;28;20928;-70
2022/03/18 07:52:39;;;;;;;27.00;17.07;;;9.70;99.90;;;;;;5112305;28;20443;-69
2022/03/18 07:55:06;;;;;;;25.40;17.13;;;9.60;1.00;;;;;;5111898;28;20545;-69
2022/03/18 07:57:33;;;;;;;28.70;18.50;;;9.60;99.90;;;;;;5111854;28;20954;-70
2022/03/18 08:00:02;;;;;;;31.63;18.40;;;9.60;99.90;;;;;;5112303;28;20443;-70
2022/03/18 08:02:29;;;;;;;32.03;19.73;;;9.60;99.90;;;;;;5111934;28;20452;-68
2022/03/18 08:04:56;;;;;;;26.63;19.13;;;9.60;99.90;;;;;;5112355;28;20534;-70
2022/03/18 08:07:22;;;;;;;29.43;18.10;;;9.80;99.90;;;;;;5112640;28;20450;-69
2022/03/18 08:09:49;;;;;;;29.67;18.73;;;9.80;96.80;;;;;;5111765;28;20451;-69
2022/03/18 08:12:16;;;;;;;27.93;18.47;;;10.00;1.00;;;;;;5112487;28;20486;-69
2022/03/18 08:14:43;;;;;;;29.37;19.43;;;9.80;1.00;;;;;;5110820;28;20491;-69
2022/03/18 08:17:12;;;;;;;30.30;21.20;;;9.90;99.90;;;;;;5112432;28;20475;-69
2022/03/18 08:19:39;;;;;;;33.67;21.20;;;10.10;99.90;;;;;;5111369;28;20833;-69
2022/03/18 08:22:07;;;;;;;34.40;20.93;;;10.10;1.00;;;;;;5111953;28;20818;-69
2022/03/18 08:24:34;;;;;;;34.77;20.40;;;10.10;1.00;;;;;;5110608;28;20468;-70
2022/03/18 08:27:00;;;;;;;29.63;20.50;;;9.90;1.00;;;;;;5111680;28;20447;-70
2022/03/18 08:29:27;;;;;;;30.83;21.67;;;9.80;99.90;;;;;;5111289;28;20453;-69
2022/03/18 08:31:54;;;;;;;32.43;20.50;;;9.70;99.90;;;;;;5112192;28;20482;-69
2022/03/18 08:34:22;;;;;;;29.53;19.00;;;9.60;1.00;;;;;;5111726;28;20447;-69
2022/03/18 08:36:49;;;;;;;28.43;19.47;;;9.70;99.90;;;;;;5111212;28;20483;-69
2022/03/18 08:39:17;;;;;;;32.97;21.30;;;9.60;99.90;;;;;;5111713;28;20479;-69
2022/03/18 08:41:44;;;;;;;32.10;21.33;;;9.80;99.90;;;;;;5111104;28;20501;-69
2022/03/18 08:44:11;;;;;;;30.10;19.53;;;9.90;88.80;;;;;;5111080;28;20598;-69
2022/03/18 08:46:37;;;;;;;29.70;22.27;;;9.80;98.50;;;;;;5110709;28;20458;-68
2022/03/18 08:49:04;;;;;;;32.07;23.17;;;9.80;47.00;;;;;;5111371;28;20966;-69
2022/03/18 08:51:33;;;;;;;29.23;19.17;;;10.00;99.90;;;;;;5111043;28;20507;-69
2022/03/18 08:54:02;;;;;;;30.20;19.90;;;10.10;99.90;;;;;;5110539;28;20545;-70
2022/03/18 08:56:29;;;;;;;32.70;21.43;;;10.00;99.90;;;;;;5110563;28;20603;-69
2022/03/18 08:58:56;;;;;;;32.23;20.97;;;9.70;99.90;;;;;;5111076;28;20475;-69
2022/03/18 09:01:25;;;;;;;29.13;19.93;;;9.80;1.00;;;;;;5111679;28;20451;-69
2022/03/18 09:03:52;;;;;;;31.30;20.97;;;9.90;99.90;;;;;;5110717;28;20951;-69
2022/03/18 09:06:19;;;;;;;28.57;18.50;;;9.90;99.90;;;;;;5111188;28;20959;-69
2022/03/18 09:08:47;;;;;;;25.10;18.77;;;9.90;99.90;;;;;;5110428;28;20479;-69
2022/03/18 09:11:14;;;;;;;29.47;18.87;;;9.90;99.90;;;;;;5111057;28;20465;-70
2022/03/18 09:13:41;;;;;;;28.17;19.50;;;10.10;1.00;;;;;;5110652;28;20513;-69
2022/03/18 09:16:08;;;;;;;28.07;19.13;;;9.80;1.00;;;;;;5111054;28;20567;-69
2022/03/18 09:18:35;;;;;;;26.70;18.57;;;9.90;4.70;;;;;;5110324;28;20455;-69
2022/03/18 09:21:02;;;;;;;26.37;18.60;;;10.00;99.90;;;;;;5111464;28;20443;-71
2022/03/18 09:23:29;;;;;;;26.27;16.67;;;9.90;1.00;;;;;;5109952;28;20451;-69
2022/03/18 09:25:58;;;;;;;23.70;17.67;;;9.90;1.00;;;;;;5111307;28;20471;-69
2022/03/18 09:28:24;;;;;;;28.13;17.17;;;10.00;99.90;;;;;;5111259;28;20928;-69
2022/03/18 09:30:52;;;;;;;26.20;16.70;;;9.90;69.10;;;;;;5111179;28;20475;-69
2022/03/18 09:33:19;;;;;;;28.13;17.87;;;9.90;99.90;;;;;;5110562;28;20451;-69
2022/03/18 09:35:46;;;;;;;29.97;16.70;;;9.80;99.90;;;;;;5109915;28;20700;-69
2022/03/18 09:38:13;;;;;;;21.90;16.03;;;9.90;99.90;;;;;;5110767;28;20439;-69
2022/03/18 09:40:41;;;;;;;23.80;17.30;;;10.10;1.00;;;;;;5110525;28;20837;-69
2022/03/18 09:43:10;;;;;;;24.40;16.90;;;10.10;1.00;;;;;;5110841;28;20450;-70
2022/03/18 09:45:39;;;;;;;24.67;16.00;;;10.10;1.00;;;;;;5110328;28;20491;-68
2022/03/18 09:48:09;;;;;;;28.33;17.40;;;10.20;99.90;;;;;;5111104;28;20535;-69
2022/03/18 09:50:37;;;;;;;27.90;18.40;;;10.00;1.00;;;;;;5109747;28;20959;-70
2022/03/18 09:53:04;;;;;;;27.73;17.57;;;10.00;99.90;;;;;;5109785;28;20538;-70
2022/03/18 09:55:34;;;;;;;29.20;17.03;;;10.20;1.00;;;;;;5110100;28;20494;-69
2022/03/18 09:58:01;;;;;;;27.20;18.63;;;10.20;99.90;;;;;;5110996;28;20447;-69
2022/03/18 10:00:30;;;;;;;26.77;17.07;;;10.20;99.90;;;;;;5110059;28;20444;-71
2022/03/18 10:03:08;;;;;;;22.83;16.57;;;10.10;99.90;;;;;;5110818;28;20614;-70
2022/03/18 10:05:35;;;;;;;26.10;15.43;;;10.30;99.90;;;;;;5097719;28;20446;-69
2022/03/18 10:08:02;;;;;;;27.33;17.00;;;10.20;99.90;;;;;;5114648;28;20500;-68
2022/03/18 10:10:30;;;;;;;25.60;17.03;;;10.20;99.90;;;;;;5114017;28;20505;-69
2022/03/18 10:13:01;;;;;;;25.47;17.90;;;10.30;99.90;;;;;;5114746;28;20443;-69
2022/03/18 10:15:30;;;;;;;26.50;18.03;;;10.40;99.90;;;;;;5113886;28;20471;-69
2022/03/18 10:17:58;;;;;;;26.80;17.70;;;10.50;59.90;;;;;;5114374;28;20444;-69
2022/03/18 10:20:31;;;;;;;24.50;16.67;;;10.50;46.70;;;;;;5114543;28;20493;-69
2022/03/18 10:23:03;;;;;;;31.83;18.10;;;10.50;9.70;;;;;;5113794;28;20470;-69
2022/03/18 10:25:38;;;;;;;26.70;17.10;;;10.60;11.00;;;;;;5113306;28;20490;-69
2022/03/18 10:28:05;;;;;;;27.30;18.07;;;10.50;1.00;;;;;;5114330;28;20530;-70
2022/03/18 10:30:34;;;;;;;25.83;17.63;;;10.70;1.00;;;;;;5113438;28;20447;-69
2022/03/18 10:33:01;;;;;;;28.57;18.00;;;10.80;1.00;;;;;;5113841;28;20539;-69
2022/03/18 10:38:36;;;;;;;27.87;19.20;;;11.10;1.00;;;;;;5102991;28;20473;-68
2022/03/18 10:41:07;;;;;;;22.20;16.50;;;11.00;1.00;;;;;;5114373;28;20472;-69
2022/03/18 10:43:52;;;;;;;28.13;17.93;;;11.10;1.00;;;;;;5113276;28;20459;-69
2022/03/18 10:46:22;;;;;;;26.73;18.53;;;11.00;1.00;;;;;;5102246;28;20531;-70
2022/03/18 10:49:07;;;;;;;30.70;18.40;;;11.00;1.00;;;;;;5112973;28;20455;-70
2022/03/18 10:51:35;;;;;;;26.90;18.37;;;10.90;1.00;;;;;;5113725;28;20834;-70
2022/03/18 10:54:02;;;;;;;25.43;17.87;;;11.10;1.00;;;;;;5113065;28;20500;-68
2022/03/18 10:56:29;;;;;;;27.40;18.60;;;11.20;1.00;;;;;;5113407;28;20862;-69
2022/03/18 10:58:56;;;;;;;29.30;18.53;;;11.20;1.00;;;;;;5113544;28;20458;-69
2022/03/18 11:01:25;;;;;;;28.80;20.07;;;11.20;1.00;;;;;;5113741;28;20481;-70
2022/03/18 11:03:52;;;;;;;27.77;18.90;;;11.50;1.00;;;;;;5113370;28;20523;-69
2022/03/18 11:06:20;;;;;;;27.00;18.60;;;11.60;1.00;;;;;;5113834;28;20450;-70
2022/03/18 11:08:48;;;;;;;27.23;18.43;;;11.80;1.00;;;;;;5092101;28;20540;-70
2022/03/18 11:11:18;;;;;;;30.00;20.17;;;11.70;1.00;;;;;;5106691;28;20463;-70
2022/03/18 11:13:56;;;;;;;24.80;17.93;;;11.60;1.00;;;;;;5112213;28;20455;-70
2022/03/18 11:16:27;;;;;;;28.07;18.73;;;11.70;1.00;;;;;;5113501;28;20502;-70
2022/03/18 11:18:54;;;;;;;27.60;19.30;;;11.80;1.00;;;;;;5112246;28;20477;-70
2022/03/18 11:21:25;;;;;;;31.17;19.40;;;11.60;1.00;;;;;;5100184;28;20435;-70
2022/03/18 11:23:55;;;;;;;32.03;20.20;;;11.60;1.00;;;;;;5113052;28;20456;-70
2022/03/18 11:26:22;;;;;;;28.83;19.40;;;11.60;1.00;;;;;;5113130;28;20456;-70
2022/03/18 11:29:07;;;;;;;25.57;19.10;;;11.70;1.00;;;;;;5112625;28;20954;-70
2022/03/18 11:31:36;;;;;;;28.27;21.03;;;11.70;1.00;;;;;;5099648;28;20436;-70
2022/03/18 11:34:11;;;;;;;27.00;19.27;;;11.50;1.00;;;;;;5112492;28;20480;-69
2022/03/18 11:36:45;;;;;;;29.67;18.80;;;11.60;1.00;;;;;;5112557;28;20470;-69
2022/03/18 11:39:19;;;;;;;30.77;19.20;;;11.80;1.00;;;;;;5112887;28;20450;-69
2022/03/18 11:41:49;;;;;;;26.77;18.00;;;11.60;1.00;;;;;;5112817;28;21124;-69
2022/03/18 11:44:38;;;;;;;25.40;18.20;;;11.80;1.00;;;;;;5114001;28;20959;-70
2022/03/18 11:47:50;;;;;;;28.83;18.20;;;11.80;1.00;;;;;;5115437;28;20474;-70
2022/03/18 11:50:41;;;;;;;23.73;17.20;;;11.80;1.00;;;;;;5050853;28;20454;-71
2022/03/18 11:53:08;;;;;;;27.53;18.53;;;11.70;1.00;;;;;;5100321;28;20520;-70
2022/03/18 11:55:35;;;;;;;27.27;18.90;;;11.90;1.00;;;;;;5113446;28;20995;-70
2022/03/18 11:58:22;;;;;;;26.60;19.03;;;12.00;1.00;;;;;;5113123;28;20451;-69
2022/03/18 12:00:49;;;;;;;25.63;18.80;;;12.00;1.00;;;;;;5099266;28;20486;-69
2022/03/18 12:03:21;;;;;;;34.80;19.57;;;12.10;1.00;;;;;;5113004;28;20451;-70
2022/03/18 12:05:57;;;;;;;26.57;19.47;;;12.40;1.00;;;;;;5112617;28;20907;-70
2022/03/18 12:08:56;;;;;;;30.27;20.77;;;12.60;1.00;;;;;;5112947;28;20450;-70
2022/03/18 12:11:31;;;;;;;25.60;19.43;;;12.80;1.00;;;;;;5016389;28;20839;-70
2022/03/18 12:14:00;;;;;;;28.33;20.07;;;12.50;1.00;;;;;;5098434;28;20535;-69
2022/03/18 12:16:27;;;;;;;27.20;19.90;;;12.30;1.00;;;;;;5112023;28;20483;-70
2022/03/18 12:18:59;;;;;;;33.50;20.10;;;12.10;1.00;;;;;;5112052;28;20953;-70
2022/03/18 12:21:38;;;;;;;24.43;18.93;;;12.00;1.00;;;;;;5111762;28;20478;-70
2022/03/18 12:24:07;;;;;;;26.90;20.63;;;12.10;1.00;;;;;;5111608;28;20462;-70
2022/03/18 12:26:36;;;;;;;29.00;18.97;;;12.20;1.00;;;;;;5111485;28;20535;-70
2022/03/18 12:29:04;;;;;;;27.80;19.53;;;12.30;1.00;;;;;;5111846;28;20987;-70
2022/03/18 12:31:31;;;;;;;27.97;19.17;;;12.20;1.00;;;;;;5111120;28;20448;-70
2022/03/18 12:33:59;;;;;;;35.13;21.70;;;12.40;1.00;;;;;;5111369;28;20452;-70
2022/03/18 12:36:27;;;;;;;30.87;21.60;;;12.40;1.00;;;;;;5111875;28;20518;-70
2022/03/18 12:39:12;;;;;;;31.90;19.77;;;12.50;1.00;;;;;;5111068;28;20988;-69
2022/03/18 12:41:41;;;;;;;28.60;20.10;;;12.50;1.00;;;;;;5100459;28;20519;-69
2022/03/18 12:44:08;;;;;;;28.20;20.50;;;12.50;1.00;;;;;;5111356;28;20804;-70
2022/03/18 12:46:37;;;;;;;26.10;20.07;;;12.20;1.00;;;;;;5111089;28;20447;-70
2022/03/18 12:49:04;;;;;;;28.13;20.47;;;12.40;1.00;;;;;;5111973;28;20542;-70
2022/03/18 12:51:31;;;;;;;27.47;19.67;;;12.40;1.00;;;;;;5111084;28;20538;-70
2022/03/18 12:53:59;;;;;;;29.97;19.20;;;12.50;1.00;;;;;;5110821;28;20905;-69
2022/03/18 12:56:31;;;;;;;29.13;20.57;;;12.60;1.00;;;;;;5111301;28;20534;-70
2022/03/18 12:58:59;;;;;;;26.23;19.20;;;12.50;1.00;;;;;;5111765;28;20505;-70
2022/03/18 13:01:28;;;;;;;25.37;18.10;;;12.90;99.90;;;;;;5111435;28;20462;-70
2022/03/18 13:03:56;;;;;;;31.97;21.07;;;12.90;99.90;;;;;;5111352;28;20447;-70
2022/03/18 13:06:27;;;;;;;26.67;19.80;;;12.90;99.90;;;;;;5111367;28;20813;-70
2022/03/18 13:09:05;;;;;;;27.37;20.30;;;12.90;99.90;;;;;;5111728;28;20484;-70